sensor_id;sensor_type;location;lat;lon;timestamp;temperature;humidity
37874;DHT22;23709;48.078;11.684;2023-08-08T00:00:55;12.00;99.90
37874;DHT22;23709;48.078;11.684;2023-08-08T00:03:27;12.00;99.90
37874;DHT22;23709;48.078;11.684;2023-08-08T00:06:00;12.10;99.90
37874;DHT22;23709;48.078;11.684;2023-08-08T00:08:33;12.10;99.90
37874;DHT22;23709;48.078;11.684;2023-08-08T00:11:05;12.10;99.90
37874;DHT22;23709;48.078;11.684;2023-08-08T00:13:37;12.00;99.90
37874;DHT22;23709;48.078;11.684;2023-08-08T00:16:10;12.00;99.90
37874;DHT22;23709;48.078;11.684;2023-08-08T00:18:42;12.10;99.90
37874;DHT22;23709;48.078;11.684;2023-08-08T00:21:14;12.00;99.90
37874;DHT22;23709;48.078;11.684;2023-08-08T00:23:46;12.00;99.90
37874;DHT22;23709;48.078;11.684;2023-08-08T00:26:18;12.10;99.90
37874;DHT22;23709;48.078;11.684;2023-08-08T00:28:51;12.20;99.90
37874;DHT22;23709;48.078;11.684;2023-08-08T00:31:23;12.10;99.90
37874;DHT22;23709;48.078;11.684;2023-08-08T00:33:56;12.20;99.90
37874;DHT22;23709;48.078;11.684;2023-08-08T00:36:28;12.10;99.90
37874;DHT22;23709;48.078;11.684;2023-08-08T00:39:01;12.20;99.90
37874;DHT22;23709;48.078;11.684;2023-08-08T00:41:33;12.20;99.90
37874;DHT22;23709;48.078;11.684;2023-08-08T00:44:06;12.20;99.90
37874;DHT22;23709;48.078;11.684;2023-08-08T00:46:39;12.20;99.90
37874;DHT22;23709;48.078;11.684;2023-08-08T00:49:11;12.10;99.90
37874;DHT22;23709;48.078;11.684;2023-08-08T00:51:43;12.20;99.90
37874;DHT22;23709;48.078;11.684;2023-08-08T00:54:16;12.20;99.90
37874;DHT22;23709;48.078;11.684;2023-08-08T00:56:48;12.20;99.90
37874;DHT22;23709;48.078;11.684;2023-08-08T00:59:21;12.20;99.90
37874;DHT22;23709;48.078;11.684;2023-08-08T01:01:55;12.30;99.90
37874;DHT22;23709;48.078;11.684;2023-08-08T01:04:28;12.20;99.90
37874;DHT22;23709;48.078;11.684;2023-08-08T01:07:39;12.30;99.90
37874;DHT22;23709;48.078;11.684;2023-08-08T01:10:11;12.30;99.90
37874;DHT22;23709;48.078;11.684;2023-08-08T01:12:48;12.30;99.90
37874;DHT22;23709;48.078;11.684;2023-08-08T01:15:21;12.30;99.90
37874;DHT22;23709;48.078;11.684;2023-08-08T01:17:54;12.30;99.90
37874;DHT22;23709;48.078;11.684;2023-08-08T01:20:27;12.20;99.90
37874;DHT22;23709;48.078;11.684;2023-08-08T01:23:19;12.20;99.90
37874;DHT22;23709;48.078;11.684;2023-08-08T01:25:57;12.10;99.90
37874;DHT22;23709;48.078;11.684;2023-08-08T01:28:31;12.20;99.90
37874;DHT22;23709;48.078;11.684;2023-08-08T01:31:03;12.20;99.90
37874;DHT22;23709;48.078;11.684;2023-08-08T01:33:36;12.20;99.90
37874;DHT22;23709;48.078;11.684;2023-08-08T01:36:25;12.10;99.90
37874;DHT22;23709;48.078;11.684;2023-08-08T01:39:00;12.10;99.90
37874;DHT22;23709;48.078;11.684;2023-08-08T01:41:38;12.10;99.90
37874;DHT22;23709;48.078;11.684;2023-08-08T01:44:12;12.10;99.90
37874;DHT22;23709;48.078;11.684;2023-08-08T01:46:45;12.00;99.90
37874;DHT22;23709;48.078;11.684;2023-08-08T01:49:18;11.90;99.90
37874;DHT22;23709;48.078;11.684;2023-08-08T01:51:51;11.90;99.90
37874;DHT22;23709;48.078;11.684;2023-08-08T01:54:24;11.90;99.90
37874;DHT22;23709;48.078;11.684;2023-08-08T01:56:56;11.90;99.90
37874;DHT22;23709;48.078;11.684;2023-08-08T01:59:28;11.80;99.90
37874;DHT22;23709;48.078;11.684;2023-08-08T02:04:34;11.70;99.90
37874;DHT22;23709;48.078;11.684;2023-08-08T02:07:06;11.70;99.90
37874;DHT22;23709;48.078;11.684;2023-08-08T02:09:39;11.60;99.90
37874;DHT22;23709;48.078;11.684;2023-08-08T02:12:11;11.60;99.90
37874;DHT22;23709;48.078;11.684;2023-08-08T02:14:43;11.60;99.90
37874;DHT22;23709;48.078;11.684;2023-08-08T02:17:16;11.50;99.90
37874;DHT22;23709;48.078;11.684;2023-08-08T02:19:48;11.50;99.90
37874;DHT22;23709;48.078;11.684;2023-08-08T02:22:22;11.50;99.90
37874;DHT22;23709;48.078;11.684;2023-08-08T02:24:54;11.50;99.90
37874;DHT22;23709;48.078;11.684;2023-08-08T02:27:26;11.40;99.90
37874;DHT22;23709;48.078;11.684;2023-08-08T02:29:58;11.40;99.90
37874;DHT22;23709;48.078;11.684;2023-08-08T02:32:31;11.40;99.90
37874;DHT22;23709;48.078;11.684;2023-08-08T02:35:03;11.40;99.90
37874;DHT22;23709;48.078;11.684;2023-08-08T02:37:35;11.30;99.90
37874;DHT22;23709;48.078;11.684;2023-08-08T02:40:08;11.30;99.90
37874;DHT22;23709;48.078;11.684;2023-08-08T02:42:41;11.30;99.90
37874;DHT22;23709;48.078;11.684;2023-08-08T02:45:14;11.30;99.90
37874;DHT22;23709;48.078;11.684;2023-08-08T02:47:46;11.20;99.90
37874;DHT22;23709;48.078;11.684;2023-08-08T02:50:18;11.20;99.90
37874;DHT22;23709;48.078;11.684;2023-08-08T02:52:51;11.10;99.90
37874;DHT22;23709;48.078;11.684;2023-08-08T02:55:27;11.10;99.90
37874;DHT22;23709;48.078;11.684;2023-08-08T02:57:59;11.10;99.90
37874;DHT22;23709;48.078;11.684;2023-08-08T03:00:31;11.00;99.90
37874;DHT22;23709;48.078;11.684;2023-08-08T03:03:05;11.00;99.90
37874;DHT22;23709;48.078;11.684;2023-08-08T03:05:37;10.90;99.90
37874;DHT22;23709;48.078;11.684;2023-08-08T03:08:10;10.80;99.90
37874;DHT22;23709;48.078;11.684;2023-08-08T03:10:42;10.90;99.90
37874;DHT22;23709;48.078;11.684;2023-08-08T03:13:15;10.90;99.90
37874;DHT22;23709;48.078;11.684;2023-08-08T03:15:48;10.80;99.90
37874;DHT22;23709;48.078;11.684;2023-08-08T03:18:20;10.80;99.90
37874;DHT22;23709;48.078;11.684;2023-08-08T03:20:54;10.80;99.90
37874;DHT22;23709;48.078;11.684;2023-08-08T03:23:28;10.70;99.90
37874;DHT22;23709;48.078;11.684;2023-08-08T03:26:01;10.70;99.90
37874;DHT22;23709;48.078;11.684;2023-08-08T03:28:33;10.70;99.90
37874;DHT22;23709;48.078;11.684;2023-08-08T03:31:06;10.60;99.90
37874;DHT22;23709;48.078;11.684;2023-08-08T03:33:39;10.70;99.90
37874;DHT22;23709;48.078;11.684;2023-08-08T03:36:14;10.70;99.90
37874;DHT22;23709;48.078;11.684;2023-08-08T03:38:47;10.70;99.90
37874;DHT22;23709;48.078;11.684;2023-08-08T03:41:20;10.70;99.90
37874;DHT22;23709;48.078;11.684;2023-08-08T03:43:52;10.80;99.90
37874;DHT22;23709;48.078;11.684;2023-08-08T03:46:25;10.80;99.90
37874;DHT22;23709;48.078;11.684;2023-08-08T03:48:57;10.80;99.90
37874;DHT22;23709;48.078;11.684;2023-08-08T03:51:29;10.90;99.90
37874;DHT22;23709;48.078;11.684;2023-08-08T03:54:01;11.00;99.90
37874;DHT22;23709;48.078;11.684;2023-08-08T03:56:34;10.90;99.90
37874;DHT22;23709;48.078;11.684;2023-08-08T03:59:07;10.90;99.90
37874;DHT22;23709;48.078;11.684;2023-08-08T04:01:39;11.00;99.90
37874;DHT22;23709;48.078;11.684;2023-08-08T04:04:12;11.00;99.90
37874;DHT22;23709;48.078;11.684;2023-08-08T04:06:44;11.00;99.90
37874;DHT22;23709;48.078;11.684;2023-08-08T04:09:16;11.10;99.90
37874;DHT22;23709;48.078;11.684;2023-08-08T04:11:49;11.10;99.90
37874;DHT22;23709;48.078;11.684;2023-08-08T04:14:21;11.10;99.90
37874;DHT22;23709;48.078;11.684;2023-08-08T04:16:53;11.10;99.90
37874;DHT22;23709;48.078;11.684;2023-08-08T04:19:26;11.10;99.90
37874;DHT22;23709;48.078;11.684;2023-08-08T04:21:58;11.20;99.90
37874;DHT22;23709;48.078;11.684;2023-08-08T04:24:31;11.20;99.90
37874;DHT22;23709;48.078;11.684;2023-08-08T04:27:03;11.20;99.90
37874;DHT22;23709;48.078;11.684;2023-08-08T04:29:37;11.20;99.90
37874;DHT22;23709;48.078;11.684;2023-08-08T04:32:09;11.30;99.90
37874;DHT22;23709;48.078;11.684;2023-08-08T04:34:42;11.30;99.90
37874;DHT22;23709;48.078;11.684;2023-08-08T04:37:14;11.40;99.90
37874;DHT22;23709;48.078;11.684;2023-08-08T04:39:47;11.40;99.90
37874;DHT22;23709;48.078;11.684;2023-08-08T04:42:19;11.40;99.90
37874;DHT22;23709;48.078;11.684;2023-08-08T04:44:51;11.40;99.90
37874;DHT22;23709;48.078;11.684;2023-08-08T04:47:23;11.50;99.90
37874;DHT22;23709;48.078;11.684;2023-08-08T04:49:56;11.50;99.90
37874;DHT22;23709;48.078;11.684;2023-08-08T04:52:28;11.50;99.90
37874;DHT22;23709;48.078;11.684;2023-08-08T04:55:01;11.60;99.90
37874;DHT22;23709;48.078;11.684;2023-08-08T04:57:33;11.60;99.90
37874;DHT22;23709;48.078;11.684;2023-08-08T05:00:06;11.70;99.90
37874;DHT22;23709;48.078;11.684;2023-08-08T05:02:40;11.70;99.90
37874;DHT22;23709;48.078;11.684;2023-08-08T05:05:13;11.80;99.90
37874;DHT22;23709;48.078;11.684;2023-08-08T05:07:46;11.80;99.90
37874;DHT22;23709;48.078;11.684;2023-08-08T05:10:18;11.90;99.90
37874;DHT22;23709;48.078;11.684;2023-08-08T05:12:50;11.90;99.90
37874;DHT22;23709;48.078;11.684;2023-08-08T05:15:22;12.00;99.90
37874;DHT22;23709;48.078;11.684;2023-08-08T05:17:55;12.00;99.90
37874;DHT22;23709;48.078;11.684;2023-08-08T05:20:27;12.00;99.90
37874;DHT22;23709;48.078;11.684;2023-08-08T05:23:00;12.10;99.90
37874;DHT22;23709;48.078;11.684;2023-08-08T05:25:33;12.10;99.90
37874;DHT22;23709;48.078;11.684;2023-08-08T05:28:05;12.20;99.90
37874;DHT22;23709;48.078;11.684;2023-08-08T05:30:38;12.20;99.90
37874;DHT22;23709;48.078;11.684;2023-08-08T05:33:10;12.20;99.90
37874;DHT22;23709;48.078;11.684;2023-08-08T05:35:43;12.30;99.90
37874;DHT22;23709;48.078;11.684;2023-08-08T05:38:15;12.30;99.90
37874;DHT22;23709;48.078;11.684;2023-08-08T05:40:47;12.40;99.90
37874;DHT22;23709;48.078;11.684;2023-08-08T05:43:19;12.50;99.90
37874;DHT22;23709;48.078;11.684;2023-08-08T05:45:53;12.60;99.90
37874;DHT22;23709;48.078;11.684;2023-08-08T05:48:25;12.70;99.90
37874;DHT22;23709;48.078;11.684;2023-08-08T05:50:58;12.80;99.90
37874;DHT22;23709;48.078;11.684;2023-08-08T05:53:31;12.80;99.90
37874;DHT22;23709;48.078;11.684;2023-08-08T05:56:04;13.00;99.90
37874;DHT22;23709;48.078;11.684;2023-08-08T05:58:36;13.00;99.90
37874;DHT22;23709;48.078;11.684;2023-08-08T06:01:09;13.10;99.90
37874;DHT22;23709;48.078;11.684;2023-08-08T06:03:43;13.20;99.90
37874;DHT22;23709;48.078;11.684;2023-08-08T06:06:16;13.10;99.90
37874;DHT22;23709;48.078;11.684;2023-08-08T06:08:48;13.10;99.90
37874;DHT22;23709;48.078;11.684;2023-08-08T06:11:21;13.10;99.90
37874;DHT22;23709;48.078;11.684;2023-08-08T06:13:54;13.20;99.90
37874;DHT22;23709;48.078;11.684;2023-08-08T06:16:27;13.20;99.90
37874;DHT22;23709;48.078;11.684;2023-08-08T06:18:59;13.30;99.90
37874;DHT22;23709;48.078;11.684;2023-08-08T06:21:32;13.30;99.90
37874;DHT22;23709;48.078;11.684;2023-08-08T06:24:04;13.40;99.90
37874;DHT22;23709;48.078;11.684;2023-08-08T06:26:37;13.40;99.90
37874;DHT22;23709;48.078;11.684;2023-08-08T06:29:09;13.50;99.90
37874;DHT22;23709;48.078;11.684;2023-08-08T06:31:42;13.50;99.90
37874;DHT22;23709;48.078;11.684;2023-08-08T06:34:14;13.60;99.90
37874;DHT22;23709;48.078;11.684;2023-08-08T06:36:47;13.80;99.90
37874;DHT22;23709;48.078;11.684;2023-08-08T06:39:19;13.90;99.90
37874;DHT22;23709;48.078;11.684;2023-08-08T06:42:12;14.00;99.90
37874;DHT22;23709;48.078;11.684;2023-08-08T06:45:14;14.00;99.90
37874;DHT22;23709;48.078;11.684;2023-08-08T06:47:47;14.20;99.90
37874;DHT22;23709;48.078;11.684;2023-08-08T06:50:21;14.30;99.90
37874;DHT22;23709;48.078;11.684;2023-08-08T06:52:53;14.30;99.90
37874;DHT22;23709;48.078;11.684;2023-08-08T06:55:25;14.40;99.90
37874;DHT22;23709;48.078;11.684;2023-08-08T06:57:58;14.50;99.90
37874;DHT22;23709;48.078;11.684;2023-08-08T07:00:31;14.60;99.90
37874;DHT22;23709;48.078;11.684;2023-08-08T07:03:03;14.70;99.90
37874;DHT22;23709;48.078;11.684;2023-08-08T07:05:36;14.80;99.90
37874;DHT22;23709;48.078;11.684;2023-08-08T07:08:10;14.90;99.90
37874;DHT22;23709;48.078;11.684;2023-08-08T07:10:42;15.00;99.90
37874;DHT22;23709;48.078;11.684;2023-08-08T07:13:15;15.10;99.90
37874;DHT22;23709;48.078;11.684;2023-08-08T07:15:48;15.30;99.90
37874;DHT22;23709;48.078;11.684;2023-08-08T07:18:20;15.40;99.90
37874;DHT22;23709;48.078;11.684;2023-08-08T07:20:53;15.50;99.90
37874;DHT22;23709;48.078;11.684;2023-08-08T07:23:25;15.50;99.90
37874;DHT22;23709;48.078;11.684;2023-08-08T07:25:57;15.60;99.90
37874;DHT22;23709;48.078;11.684;2023-08-08T07:28:30;15.70;99.90
37874;DHT22;23709;48.078;11.684;2023-08-08T07:31:02;15.70;99.90
37874;DHT22;23709;48.078;11.684;2023-08-08T07:33:34;15.80;99.90
37874;DHT22;23709;48.078;11.684;2023-08-08T07:36:07;15.90;99.90
37874;DHT22;23709;48.078;11.684;2023-08-08T07:38:39;15.90;99.90
37874;DHT22;23709;48.078;11.684;2023-08-08T07:41:11;15.90;99.90
37874;DHT22;23709;48.078;11.684;2023-08-08T07:43:44;16.10;99.90
37874;DHT22;23709;48.078;11.684;2023-08-08T07:46:16;16.20;99.90
37874;DHT22;23709;48.078;11.684;2023-08-08T07:48:49;16.30;99.90
37874;DHT22;23709;48.078;11.684;2023-08-08T07:51:21;16.40;99.90
37874;DHT22;23709;48.078;11.684;2023-08-08T07:53:53;16.50;99.90
37874;DHT22;23709;48.078;11.684;2023-08-08T07:56:26;16.60;99.90
37874;DHT22;23709;48.078;11.684;2023-08-08T07:58:58;16.80;99.90
37874;DHT22;23709;48.078;11.684;2023-08-08T08:01:32;16.80;99.90
37874;DHT22;23709;48.078;11.684;2023-08-08T08:04:04;16.80;99.90
37874;DHT22;23709;48.078;11.684;2023-08-08T08:06:36;16.80;99.90
37874;DHT22;23709;48.078;11.684;2023-08-08T08:09:09;16.90;99.90
37874;DHT22;23709;48.078;11.684;2023-08-08T08:11:41;16.90;99.90
37874;DHT22;23709;48.078;11.684;2023-08-08T08:14:14;17.00;99.90
37874;DHT22;23709;48.078;11.684;2023-08-08T08:16:46;17.20;99.90
37874;DHT22;23709;48.078;11.684;2023-08-08T08:19:19;17.20;99.90
37874;DHT22;23709;48.078;11.684;2023-08-08T08:21:51;17.30;99.90
37874;DHT22;23709;48.078;11.684;2023-08-08T08:24:24;17.40;99.90
37874;DHT22;23709;48.078;11.684;2023-08-08T08:26:56;17.40;99.90
37874;DHT22;23709;48.078;11.684;2023-08-08T08:29:29;17.50;99.50
37874;DHT22;23709;48.078;11.684;2023-08-08T08:32:01;17.60;99.50
37874;DHT22;23709;48.078;11.684;2023-08-08T08:34:34;17.80;99.00
37874;DHT22;23709;48.078;11.684;2023-08-08T08:37:06;17.80;98.50
37874;DHT22;23709;48.078;11.684;2023-08-08T08:39:39;17.70;97.80
37874;DHT22;23709;48.078;11.684;2023-08-08T08:42:13;17.80;98.60
37874;DHT22;23709;48.078;11.684;2023-08-08T08:44:49;18.00;98.10
37874;DHT22;23709;48.078;11.684;2023-08-08T08:47:22;18.10;96.20
37874;DHT22;23709;48.078;11.684;2023-08-08T08:49:57;18.20;96.60
37874;DHT22;23709;48.078;11.684;2023-08-08T08:52:30;18.30;95.60
37874;DHT22;23709;48.078;11.684;2023-08-08T08:55:03;18.30;95.60
37874;DHT22;23709;48.078;11.684;2023-08-08T08:57:36;18.50;95.80
37874;DHT22;23709;48.078;11.684;2023-08-08T09:00:09;18.70;96.10
37874;DHT22;23709;48.078;11.684;2023-08-08T09:02:42;18.90;95.60
37874;DHT22;23709;48.078;11.684;2023-08-08T09:05:18;19.10;94.20
37874;DHT22;23709;48.078;11.684;2023-08-08T09:07:53;19.10;93.50
37874;DHT22;23709;48.078;11.684;2023-08-08T09:10:27;19.10;94.20
37874;DHT22;23709;48.078;11.684;2023-08-08T09:13:00;19.00;94.00
37874;DHT22;23709;48.078;11.684;2023-08-08T09:15:33;19.10;93.80
37874;DHT22;23709;48.078;11.684;2023-08-08T09:18:07;18.90;92.90
37874;DHT22;23709;48.078;11.684;2023-08-08T09:20:39;18.90;93.70
37874;DHT22;23709;48.078;11.684;2023-08-08T09:23:12;18.80;93.30
37874;DHT22;23709;48.078;11.684;2023-08-08T09:25:44;18.90;92.30
37874;DHT22;23709;48.078;11.684;2023-08-08T09:28:17;19.00;92.90
37874;DHT22;23709;48.078;11.684;2023-08-08T09:30:49;19.10;93.40
37874;DHT22;23709;48.078;11.684;2023-08-08T09:33:27;19.00;92.80
37874;DHT22;23709;48.078;11.684;2023-08-08T09:36:00;19.00;91.90
37874;DHT22;23709;48.078;11.684;2023-08-08T09:38:32;19.10;91.60
37874;DHT22;23709;48.078;11.684;2023-08-08T09:41:04;19.10;90.70
37874;DHT22;23709;48.078;11.684;2023-08-08T09:43:37;19.30;90.50
37874;DHT22;23709;48.078;11.684;2023-08-08T09:46:10;19.30;91.10
37874;DHT22;23709;48.078;11.684;2023-08-08T09:48:42;19.50;91.00
37874;DHT22;23709;48.078;11.684;2023-08-08T09:51:16;19.60;90.40
37874;DHT22;23709;48.078;11.684;2023-08-08T09:53:49;19.40;89.50
37874;DHT22;23709;48.078;11.684;2023-08-08T09:56:23;19.60;90.60
37874;DHT22;23709;48.078;11.684;2023-08-08T09:58:57;19.80;87.40
37874;DHT22;23709;48.078;11.684;2023-08-08T10:01:31;19.70;84.20
37874;DHT22;23709;48.078;11.684;2023-08-08T10:04:03;19.80;89.60
37874;DHT22;23709;48.078;11.684;2023-08-08T10:06:37;19.70;85.40
37874;DHT22;23709;48.078;11.684;2023-08-08T10:09:09;19.50;87.00
37874;DHT22;23709;48.078;11.684;2023-08-08T10:11:42;19.60;87.40
37874;DHT22;23709;48.078;11.684;2023-08-08T10:14:16;19.40;85.70
37874;DHT22;23709;48.078;11.684;2023-08-08T10:16:48;19.70;88.10
37874;DHT22;23709;48.078;11.684;2023-08-08T10:19:22;20.00;85.60
37874;DHT22;23709;48.078;11.684;2023-08-08T10:22:02;20.00;87.00
37874;DHT22;23709;48.078;11.684;2023-08-08T10:24:36;20.20;83.80
37874;DHT22;23709;48.078;11.684;2023-08-08T10:27:09;20.40;83.60
37874;DHT22;23709;48.078;11.684;2023-08-08T10:29:41;20.40;81.40
37874;DHT22;23709;48.078;11.684;2023-08-08T10:32:24;20.40;84.10
37874;DHT22;23709;48.078;11.684;2023-08-08T10:34:57;20.60;82.70
37874;DHT22;23709;48.078;11.684;2023-08-08T10:37:35;20.60;87.00
37874;DHT22;23709;48.078;11.684;2023-08-08T10:40:09;20.60;82.90
37874;DHT22;23709;48.078;11.684;2023-08-08T10:42:45;20.70;82.90
37874;DHT22;23709;48.078;11.684;2023-08-08T10:45:18;20.70;81.60
37874;DHT22;23709;48.078;11.684;2023-08-08T10:47:50;20.80;81.80
37874;DHT22;23709;48.078;11.684;2023-08-08T10:50:23;20.70;81.50
37874;DHT22;23709;48.078;11.684;2023-08-08T10:52:56;20.70;81.70
37874;DHT22;23709;48.078;11.684;2023-08-08T10:55:34;20.60;78.30
37874;DHT22;23709;48.078;11.684;2023-08-08T10:58:08;20.60;74.60
37874;DHT22;23709;48.078;11.684;2023-08-08T11:00:43;20.60;77.20
37874;DHT22;23709;48.078;11.684;2023-08-08T11:03:15;20.60;77.10
37874;DHT22;23709;48.078;11.684;2023-08-08T11:05:47;20.70;75.90
37874;DHT22;23709;48.078;11.684;2023-08-08T11:08:23;20.60;76.70
37874;DHT22;23709;48.078;11.684;2023-08-08T11:10:55;21.00;80.20
37874;DHT22;23709;48.078;11.684;2023-08-08T11:13:28;21.30;76.00
37874;DHT22;23709;48.078;11.684;2023-08-08T11:16:01;21.30;75.20
37874;DHT22;23709;48.078;11.684;2023-08-08T11:18:35;21.50;73.80
37874;DHT22;23709;48.078;11.684;2023-08-08T11:21:10;21.50;71.90
37874;DHT22;23709;48.078;11.684;2023-08-08T11:23:50;21.60;72.00
37874;DHT22;23709;48.078;11.684;2023-08-08T11:26:22;21.90;70.20
37874;DHT22;23709;48.078;11.684;2023-08-08T11:28:57;22.10;69.80
37874;DHT22;23709;48.078;11.684;2023-08-08T11:31:30;22.10;71.10
37874;DHT22;23709;48.078;11.684;2023-08-08T11:34:03;22.10;69.80
37874;DHT22;23709;48.078;11.684;2023-08-08T11:36:37;21.90;70.10
37874;DHT22;23709;48.078;11.684;2023-08-08T11:39:09;21.70;69.70
37874;DHT22;23709;48.078;11.684;2023-08-08T11:41:42;21.70;70.20
37874;DHT22;23709;48.078;11.684;2023-08-08T11:44:15;21.90;70.40
37874;DHT22;23709;48.078;11.684;2023-08-08T11:46:49;21.80;69.30
37874;DHT22;23709;48.078;11.684;2023-08-08T11:49:21;21.90;68.90
37874;DHT22;23709;48.078;11.684;2023-08-08T11:51:56;22.10;69.30
37874;DHT22;23709;48.078;11.684;2023-08-08T11:54:30;22.60;68.90
37874;DHT22;23709;48.078;11.684;2023-08-08T11:57:03;22.70;71.40
37874;DHT22;23709;48.078;11.684;2023-08-08T11:59:36;22.80;65.80
37874;DHT22;23709;48.078;11.684;2023-08-08T12:02:09;23.10;66.60
37874;DHT22;23709;48.078;11.684;2023-08-08T12:04:45;23.30;66.00
37874;DHT22;23709;48.078;11.684;2023-08-08T12:07:18;23.50;64.40
37874;DHT22;23709;48.078;11.684;2023-08-08T12:09:52;23.70;61.70
37874;DHT22;23709;48.078;11.684;2023-08-08T12:12:26;23.80;62.30
37874;DHT22;23709;48.078;11.684;2023-08-08T12:14:58;23.50;63.80
37874;DHT22;23709;48.078;11.684;2023-08-08T12:17:39;23.70;64.40
37874;DHT22;23709;48.078;11.684;2023-08-08T12:20:14;23.50;63.10
37874;DHT22;23709;48.078;11.684;2023-08-08T12:22:46;23.70;64.90
37874;DHT22;23709;48.078;11.684;2023-08-08T12:25:19;23.80;61.90
37874;DHT22;23709;48.078;11.684;2023-08-08T12:27:51;24.00;62.70
37874;DHT22;23709;48.078;11.684;2023-08-08T12:30:24;24.20;62.90
37874;DHT22;23709;48.078;11.684;2023-08-08T12:32:56;24.30;60.70
37874;DHT22;23709;48.078;11.684;2023-08-08T12:35:28;24.40;60.50
37874;DHT22;23709;48.078;11.684;2023-08-08T12:38:01;24.40;59.50
37874;DHT22;23709;48.078;11.684;2023-08-08T12:40:34;24.60;59.80
37874;DHT22;23709;48.078;11.684;2023-08-08T12:43:07;24.90;59.30
37874;DHT22;23709;48.078;11.684;2023-08-08T12:45:39;24.90;60.50
37874;DHT22;23709;48.078;11.684;2023-08-08T12:48:12;24.80;58.80
37874;DHT22;23709;48.078;11.684;2023-08-08T12:50:44;24.90;57.60
37874;DHT22;23709;48.078;11.684;2023-08-08T12:53:17;24.90;59.30
37874;DHT22;23709;48.078;11.684;2023-08-08T12:55:49;24.90;57.00
37874;DHT22;23709;48.078;11.684;2023-08-08T12:58:22;25.10;59.80
37874;DHT22;23709;48.078;11.684;2023-08-08T13:00:55;25.20;58.30
37874;DHT22;23709;48.078;11.684;2023-08-08T13:03:27;25.70;58.10
37874;DHT22;23709;48.078;11.684;2023-08-08T13:06:00;25.60;57.80
37874;DHT22;23709;48.078;11.684;2023-08-08T13:08:32;25.60;56.20
37874;DHT22;23709;48.078;11.684;2023-08-08T13:11:05;25.70;56.50
37874;DHT22;23709;48.078;11.684;2023-08-08T13:13:37;25.20;58.20
37874;DHT22;23709;48.078;11.684;2023-08-08T13:16:09;25.50;57.20
37874;DHT22;23709;48.078;11.684;2023-08-08T13:18:43;25.90;57.00
37874;DHT22;23709;48.078;11.684;2023-08-08T13:21:16;26.00;54.90
37874;DHT22;23709;48.078;11.684;2023-08-08T13:23:48;25.80;53.70
37874;DHT22;23709;48.078;11.684;2023-08-08T13:26:21;25.80;54.20
37874;DHT22;23709;48.078;11.684;2023-08-08T13:28:53;25.90;55.50
37874;DHT22;23709;48.078;11.684;2023-08-08T13:31:26;26.30;57.90
37874;DHT22;23709;48.078;11.684;2023-08-08T13:33:58;26.40;54.90
37874;DHT22;23709;48.078;11.684;2023-08-08T13:36:31;26.50;55.40
37874;DHT22;23709;48.078;11.684;2023-08-08T13:39:03;26.50;54.70
37874;DHT22;23709;48.078;11.684;2023-08-08T13:41:36;26.10;52.80
37874;DHT22;23709;48.078;11.684;2023-08-08T13:44:08;26.20;54.50
37874;DHT22;23709;48.078;11.684;2023-08-08T13:46:41;26.70;54.00
37874;DHT22;23709;48.078;11.684;2023-08-08T13:49:13;26.60;51.00
37874;DHT22;23709;48.078;11.684;2023-08-08T13:51:46;26.40;52.10
37874;DHT22;23709;48.078;11.684;2023-08-08T13:54:21;26.60;54.40
37874;DHT22;23709;48.078;11.684;2023-08-08T13:56:53;26.70;50.70
37874;DHT22;23709;48.078;11.684;2023-08-08T13:59:26;26.80;51.90
37874;DHT22;23709;48.078;11.684;2023-08-08T14:01:58;27.20;53.90
37874;DHT22;23709;48.078;11.684;2023-08-08T14:04:31;27.30;50.20
37874;DHT22;23709;48.078;11.684;2023-08-08T14:07:03;27.40;51.90
37874;DHT22;23709;48.078;11.684;2023-08-08T14:09:37;27.70;51.60
37874;DHT22;23709;48.078;11.684;2023-08-08T14:12:09;27.40;51.60
37874;DHT22;23709;48.078;11.684;2023-08-08T14:14:42;26.80;51.10
37874;DHT22;23709;48.078;11.684;2023-08-08T14:17:14;26.70;51.00
37874;DHT22;23709;48.078;11.684;2023-08-08T14:19:46;26.50;51.30
37874;DHT22;23709;48.078;11.684;2023-08-08T14:22:18;26.90;51.90
37874;DHT22;23709;48.078;11.684;2023-08-08T14:24:51;26.80;53.00
37874;DHT22;23709;48.078;11.684;2023-08-08T14:27:24;26.20;52.40
37874;DHT22;23709;48.078;11.684;2023-08-08T14:29:56;25.90;52.60
37874;DHT22;23709;48.078;11.684;2023-08-08T14:32:28;25.30;52.00
37874;DHT22;23709;48.078;11.684;2023-08-08T14:35:02;25.00;52.50
37874;DHT22;23709;48.078;11.684;2023-08-08T14:37:37;24.80;54.20
37874;DHT22;23709;48.078;11.684;2023-08-08T14:40:09;24.70;54.30
37874;DHT22;23709;48.078;11.684;2023-08-08T14:42:42;24.70;54.00
37874;DHT22;23709;48.078;11.684;2023-08-08T14:45:17;25.30;56.00
37874;DHT22;23709;48.078;11.684;2023-08-08T14:47:50;25.80;54.90
37874;DHT22;23709;48.078;11.684;2023-08-08T14:50:23;25.70;54.50
37874;DHT22;23709;48.078;11.684;2023-08-08T14:52:55;25.10;54.00
37874;DHT22;23709;48.078;11.684;2023-08-08T14:55:28;25.20;55.70
37874;DHT22;23709;48.078;11.684;2023-08-08T14:58:00;25.10;55.40
37874;DHT22;23709;48.078;11.684;2023-08-08T15:00:33;25.30;56.30
37874;DHT22;23709;48.078;11.684;2023-08-08T15:03:05;25.40;54.70
37874;DHT22;23709;48.078;11.684;2023-08-08T15:05:38;25.60;54.60
37874;DHT22;23709;48.078;11.684;2023-08-08T15:08:10;25.70;54.90
37874;DHT22;23709;48.078;11.684;2023-08-08T15:10:42;25.80;55.50
37874;DHT22;23709;48.078;11.684;2023-08-08T15:13:15;25.80;54.20
37874;DHT22;23709;48.078;11.684;2023-08-08T15:15:47;25.70;52.70
37874;DHT22;23709;48.078;11.684;2023-08-08T15:18:19;25.70;54.10
37874;DHT22;23709;48.078;11.684;2023-08-08T15:20:52;25.50;53.70
37874;DHT22;23709;48.078;11.684;2023-08-08T15:23:24;25.30;53.30
37874;DHT22;23709;48.078;11.684;2023-08-08T15:25:59;25.30;54.70
37874;DHT22;23709;48.078;11.684;2023-08-08T15:28:32;25.00;54.80
37874;DHT22;23709;48.078;11.684;2023-08-08T15:31:04;25.00;53.00
37874;DHT22;23709;48.078;11.684;2023-08-08T15:33:36;25.00;54.30
37874;DHT22;23709;48.078;11.684;2023-08-08T15:36:10;24.30;54.20
37874;DHT22;23709;48.078;11.684;2023-08-08T15:38:43;24.30;56.20
37874;DHT22;23709;48.078;11.684;2023-08-08T15:41:15;24.40;55.60
37874;DHT22;23709;48.078;11.684;2023-08-08T15:43:48;24.70;57.20
37874;DHT22;23709;48.078;11.684;2023-08-08T15:46:20;24.70;56.30
37874;DHT22;23709;48.078;11.684;2023-08-08T15:48:52;25.10;55.70
37874;DHT22;23709;48.078;11.684;2023-08-08T15:51:25;25.30;55.30
37874;DHT22;23709;48.078;11.684;2023-08-08T15:53:57;25.50;55.00